PH-0040 weather

Philippine Stock Exchange West Tower Heliport
Pasig, Philippines

Public forecast

Using degrees Celsius for public forecast. Weather courtesy of forecast.io.

Closest aviation weather report (METAR) to Philippine Stock Exchange West Tower Heliport

Closest report is Ninoy Aquino International Airport, 5.1 nm (9.4 km) SSW. Retrieved 2020/04/05 10:00 UTC (23 minutes ago):

RPLL 051000Z 11009KT 080V140 9999 FEW025 32/19 Q1010 NOSIG RMK A2983

Closest aviation forecast (TAF) to Philippine Stock Exchange West Tower Heliport

Closest forecast is Ninoy Aquino International Airport, 5.1 nm (9.4 km) SSW. Retrieved 2020/04/05 06:00 UTC (4 hours ago):

TAF RPLL 050500Z 0506/0612 10009KT 9999 FEW025 TX35/0506Z TN35/0506Z TN25/0621Z TEMPO 0506/0512 12014KT TEMPO 0512/0518 08006KT